Time;durP1;ratioP1;P1;durP2;ratioP2;P2;SDS_P1;SDS_P2;PMS_P1;PMS_P2;Temp;Humidity;BMP_temperature;BMP_pressure;BME280_temperature;BME280_humidity;BME280_pressure;Samples;Min_cycle;Max_cycle;Signal;HPM_P1;HPM_P2
2022/03/14 00:00:19;;;;;;;19.80;12.18;;;10.50;99.00;;;;;;5052208;28;20037;-71
2022/03/14 00:02:46;;;;;;;19.20;12.43;;;10.60;99.90;;;;;;5051803;28;20033;-71
2022/03/14 00:05:14;;;;;;;19.05;11.93;;;10.60;99.90;;;;;;5035852;28;20044;-71
2022/03/14 00:07:49;;;;;;;18.48;11.80;;;10.70;99.90;;;;;;5052353;28;20036;-71
2022/03/14 00:10:16;;;;;;;22.52;12.85;;;10.60;99.90;;;;;;5052083;28;20067;-71
2022/03/14 00:12:43;;;;;;;19.67;12.45;;;10.50;99.90;;;;;;5052374;28;20159;-71
2022/03/14 00:15:13;;;;;;;19.25;13.13;;;10.40;99.90;;;;;;5052347;28;20182;-71
2022/03/14 00:17:42;;;;;;;16.08;11.55;;;10.50;99.90;;;;;;5052190;28;20044;-71
2022/03/14 00:20:11;;;;;;;20.63;14.27;;;10.40;99.90;;;;;;5051891;28;20533;-71
2022/03/14 00:22:37;;;;;;;21.05;12.57;;;10.40;99.90;;;;;;5035544;28;20048;-71
2022/03/14 00:25:04;;;;;;;21.83;14.10;;;10.40;99.90;;;;;;5052184;28;20045;-71
2022/03/14 00:27:30;;;;;;;23.73;12.68;;;10.30;99.90;;;;;;5052178;28;20040;-71
2022/03/14 00:29:55;;;;;;;22.40;12.95;;;10.40;99.90;;;;;;5051791;28;20098;-71
2022/03/14 00:32:21;;;;;;;18.63;12.93;;;10.20;99.90;;;;;;5051940;28;20045;-71
2022/03/14 00:34:46;;;;;;;22.33;13.35;;;10.50;99.90;;;;;;5035383;28;20124;-71
2022/03/14 00:37:13;;;;;;;18.60;12.32;;;10.20;99.90;;;;;;5052118;28;20087;-71
2022/03/14 00:39:38;;;;;;;19.40;13.68;;;10.30;99.90;;;;;;5051487;28;20071;-70
2022/03/14 00:42:04;;;;;;;22.75;13.38;;;10.40;99.90;;;;;;5051778;28;20033;-71
2022/03/14 00:44:31;;;;;;;17.88;12.07;;;10.30;99.90;;;;;;5035064;28;20045;-71
2022/03/14 00:46:57;;;;;;;21.13;13.07;;;10.20;99.90;;;;;;5051746;28;20052;-71
2022/03/14 00:49:22;;;;;;;19.63;12.80;;;10.10;99.90;;;;;;5034994;28;20037;-71
2022/03/14 00:51:48;;;;;;;21.58;13.52;;;10.20;99.90;;;;;;5051526;28;20062;-71
2022/03/14 00:54:13;;;;;;;20.35;13.02;;;10.20;99.90;;;;;;5051534;28;20063;-70
2022/03/14 00:56:39;;;;;;;20.45;12.43;;;9.90;99.90;;;;;;5051554;28;20083;-71
2022/03/14 00:59:05;;;;;;;18.27;12.68;;;10.00;99.90;;;;;;5034704;28;20033;-70
2022/03/14 01:01:31;;;;;;;19.17;12.98;;;10.10;99.90;;;;;;5051415;28;20059;-70
2022/03/14 01:03:58;;;;;;;19.70;13.20;;;10.00;99.90;;;;;;5035008;28;20439;-71
2022/03/14 01:06:24;;;;;;;21.38;13.18;;;10.20;99.90;;;;;;5051447;28;20052;-71
2022/03/14 01:08:49;;;;;;;19.05;13.48;;;10.10;99.90;;;;;;5051264;28;20041;-71
2022/03/14 01:11:15;;;;;;;19.67;12.88;;;10.10;99.90;;;;;;5034756;28;20041;-71
2022/03/14 01:13:41;;;;;;;17.90;12.77;;;10.00;99.90;;;;;;5050266;28;20036;-70
2022/03/14 01:16:06;;;;;;;18.30;12.68;;;10.00;99.90;;;;;;5034835;28;20414;-71
2022/03/14 01:18:33;;;;;;;20.33;12.98;;;10.00;99.90;;;;;;5050957;28;20087;-71
2022/03/14 01:20:58;;;;;;;19.33;12.85;;;9.90;99.90;;;;;;5034179;28;20483;-71
2022/03/14 01:23:24;;;;;;;21.63;13.45;;;9.90;99.90;;;;;;5051148;28;20091;-71
2022/03/14 01:25:51;;;;;;;18.90;12.40;;;10.00;99.90;;;;;;5051150;28;20028;-70
2022/03/14 01:28:17;;;;;;;17.48;12.23;;;10.00;99.90;;;;;;5051012;28;20041;-70
2022/03/14 01:30:43;;;;;;;19.67;12.15;;;9.90;99.90;;;;;;5050825;28;20090;-71
2022/03/14 01:33:09;;;;;;;21.33;13.02;;;10.10;99.90;;;;;;5051046;28;20398;-71
2022/03/14 01:35:37;;;;;;;18.70;12.50;;;9.90;99.90;;;;;;5050795;28;20098;-70
2022/03/14 01:38:03;;;;;;;20.90;12.43;;;10.00;99.90;;;;;;5050937;28;20037;-70
2022/03/14 01:40:29;;;;;;;21.27;12.70;;;9.90;99.90;;;;;;5050544;28;20029;-70
2022/03/14 01:42:54;;;;;;;19.90;12.65;;;9.90;99.90;;;;;;5034361;28;20049;-71
2022/03/14 01:45:22;;;;;;;17.40;12.55;;;9.90;99.90;;;;;;5051050;28;20041;-71
2022/03/14 01:47:49;;;;;;;15.98;10.02;;;9.90;99.90;;;;;;5050719;28;20541;-70
2022/03/14 01:50:15;;;;;;;18.25;12.05;;;9.90;99.90;;;;;;5050352;28;20495;-70
2022/03/14 01:52:43;;;;;;;20.00;12.23;;;9.90;99.90;;;;;;5050532;28;20044;-71
2022/03/14 01:55:09;;;;;;;19.90;12.50;;;9.90;99.90;;;;;;5050540;28;20048;-71
2022/03/14 01:57:36;;;;;;;17.45;11.90;;;10.20;99.90;;;;;;5050619;28;20048;-71
2022/03/14 02:00:04;;;;;;;19.30;12.52;;;;;;;;;;5033875;28;20051;-71
2022/03/14 02:02:29;;;;;;;17.98;11.85;;;9.80;99.90;;;;;;5073106;22;20044;-65
2022/03/14 02:04:55;;;;;;;17.30;11.60;;;9.90;99.90;;;;;;5049942;28;20095;-66
2022/03/14 02:07:21;;;;;;;16.42;11.38;;;9.80;99.90;;;;;;5051432;28;20045;-66
2022/03/14 02:09:46;;;;;;;13.05;9.80;;;9.90;99.90;;;;;;5049664;28;20037;-67
2022/03/14 02:12:12;;;;;;;16.38;11.40;;;10.40;99.90;;;;;;5051272;28;20410;-66
2022/03/14 02:14:42;;;;;;;16.98;11.48;;;10.00;99.90;;;;;;5051254;28;20040;-66
2022/03/14 02:17:10;;;;;;;15.63;10.93;;;10.00;99.90;;;;;;5050191;28;20495;-66
2022/03/14 02:19:35;;;;;;;14.00;10.38;;;9.80;99.90;;;;;;5049613;28;20044;-66
2022/03/14 02:22:06;;;;;;;16.05;11.48;;;10.00;99.90;;;;;;5051158;28;20029;-67
2022/03/14 02:24:31;;;;;;;14.30;10.43;;;9.90;99.90;;;;;;5050244;28;20509;-66
2022/03/14 02:26:57;;;;;;;14.90;9.68;;;9.90;99.90;;;;;;5053909;28;20064;-66
2022/03/14 02:29:26;;;;;;;15.10;10.05;;;10.00;99.90;;;;;;5055041;28;20045;-66
2022/03/14 02:31:52;;;;;;;14.20;10.25;;;9.80;99.90;;;;;;5054023;28;20094;-66
2022/03/14 02:34:18;;;;;;;13.98;9.60;;;9.90;99.90;;;;;;5055146;28;20116;-66
2022/03/14 02:36:45;;;;;;;13.02;9.18;;;10.00;99.90;;;;;;5053655;28;20094;-66
2022/03/14 02:39:11;;;;;;;14.52;9.65;;;10.00;99.90;;;;;;5054729;28;20373;-66
2022/03/14 02:41:37;;;;;;;12.68;8.98;;;10.00;99.90;;;;;;5055021;28;20083;-66
2022/03/14 02:44:08;;;;;;;12.88;9.07;;;10.00;99.90;;;;;;5054079;28;20040;-65
2022/03/14 02:46:34;;;;;;;11.90;8.68;;;10.00;99.90;;;;;;5053920;28;20112;-66
2022/03/14 02:49:01;;;;;;;12.52;8.95;;;10.10;99.90;;;;;;5054590;28;20494;-66
2022/03/14 02:51:26;;;;;;;13.25;9.23;;;10.00;99.90;;;;;;5053323;28;20560;-66
2022/03/14 02:53:53;;;;;;;12.00;9.15;;;10.00;99.90;;;;;;5053641;28;20048;-66
2022/03/14 02:56:20;;;;;;;12.93;8.35;;;9.90;99.90;;;;;;5053440;28;20045;-66
2022/03/14 02:58:47;;;;;;;14.00;9.90;;;9.90;99.90;;;;;;5053164;28;20072;-66
2022/03/14 03:01:14;;;;;;;12.70;8.50;;;10.20;99.90;;;;;;5054685;28;20044;-67
2022/03/14 03:03:40;;;;;;;13.05;9.05;;;9.90;99.90;;;;;;5056467;28;20063;-66
2022/03/14 03:06:07;;;;;;;12.23;8.45;;;10.00;99.90;;;;;;5054603;28;20037;-67
2022/03/14 03:08:33;;;;;;;13.48;8.25;;;10.00;99.90;;;;;;5053543;28;20037;-66
2022/03/14 03:10:59;;;;;;;12.38;8.90;;;9.90;99.90;;;;;;5053201;28;20086;-66
2022/03/14 03:13:28;;;;;;;10.32;7.72;;;10.00;99.90;;;;;;5052981;28;20052;-66
2022/03/14 03:15:54;;;;;;;12.60;8.32;;;10.00;99.90;;;;;;5054434;28;20593;-66
2022/03/14 03:18:19;;;;;;;12.88;8.63;;;10.00;99.90;;;;;;5053014;28;20124;-66
2022/03/14 03:20:45;;;;;;;12.55;8.38;;;10.20;99.90;;;;;;5054131;28;20037;-66
2022/03/14 03:23:10;;;;;;;12.20;8.60;;;10.10;99.90;;;;;;5052798;28;20048;-67
2022/03/14 03:25:36;;;;;;;10.93;8.38;;;9.90;99.90;;;;;;5053131;28;20040;-66
2022/03/14 03:28:02;;;;;;;10.40;8.02;;;9.90;99.90;;;;;;5054034;28;20040;-66
2022/03/14 03:30:27;;;;;;;14.88;9.10;;;10.00;99.90;;;;;;5052567;28;20087;-66
2022/03/14 03:32:53;;;;;;;12.75;8.50;;;9.90;99.90;;;;;;5052690;28;20049;-66
2022/03/14 03:35:18;;;;;;;12.90;8.93;;;9.90;99.90;;;;;;5054040;28;20048;-65
2022/03/14 03:37:44;;;;;;;15.02;9.55;;;9.80;99.90;;;;;;5051560;28;20052;-66
2022/03/14 03:40:10;;;;;;;12.50;9.07;;;9.90;99.90;;;;;;5052294;28;20037;-66
2022/03/14 03:42:35;;;;;;;12.25;9.00;;;10.00;99.90;;;;;;5053717;28;20086;-66
2022/03/14 03:45:01;;;;;;;12.65;8.80;;;9.90;99.90;;;;;;5053809;28;20041;-66
2022/03/14 03:47:27;;;;;;;11.65;8.40;;;9.70;99.90;;;;;;5052515;28;20040;-66
2022/03/14 03:49:52;;;;;;;12.52;8.88;;;9.70;99.90;;;;;;5053536;28;20094;-66
2022/03/14 03:52:18;;;;;;;12.65;8.63;;;9.80;99.90;;;;;;5052302;28;20064;-67
2022/03/14 03:54:43;;;;;;;11.32;8.63;;;9.80;99.90;;;;;;5052638;28;20041;-65
2022/03/14 03:57:09;;;;;;;11.52;8.35;;;9.70;99.90;;;;;;5053455;28;20045;-65
2022/03/14 03:59:34;;;;;;;12.77;8.93;;;9.80;99.90;;;;;;5053043;28;20044;-67
2022/03/14 04:02:02;;;;;;;10.90;7.97;;;9.70;99.90;;;;;;5053481;28;20495;-66
2022/03/14 04:04:29;;;;;;;10.90;8.00;;;9.70;99.90;;;;;;5052241;28;20037;-66
2022/03/14 04:06:56;;;;;;;10.45;7.82;;;9.80;99.90;;;;;;5052137;28;20048;-66
2022/03/14 04:09:22;;;;;;;10.77;7.78;;;9.80;99.90;;;;;;5053139;28;20045;-66
2022/03/14 04:11:47;;;;;;;8.43;6.95;;;9.60;99.90;;;;;;5053310;28;20047;-66
2022/03/14 04:14:14;;;;;;;9.98;7.45;;;9.80;99.90;;;;;;5051933;28;20045;-66
2022/03/14 04:16:40;;;;;;;11.48;6.97;;;9.80;99.90;;;;;;5035351;28;20037;-66
2022/03/14 04:19:06;;;;;;;8.32;6.43;;;9.60;99.90;;;;;;5051488;28;20045;-64
2022/03/14 04:21:36;;;;;;;7.43;6.40;;;9.50;99.90;;;;;;5053143;28;20622;-66
2022/03/14 04:24:05;;;;;;;8.23;6.18;;;9.60;99.90;;;;;;5051651;28;20045;-66
2022/03/14 04:26:31;;;;;;;7.70;5.88;;;9.60;99.90;;;;;;5053316;28;20467;-66
2022/03/14 04:28:56;;;;;;;8.13;6.00;;;9.60;99.90;;;;;;5051454;28;20036;-67
2022/03/14 04:31:22;;;;;;;10.25;5.65;;;9.60;99.90;;;;;;5053028;28;20099;-66
2022/03/14 04:33:47;;;;;;;7.38;5.20;;;9.50;99.90;;;;;;5051604;28;20044;-66
2022/03/14 04:36:14;;;;;;;7.13;4.78;;;9.60;99.90;;;;;;5051620;28;20080;-66
2022/03/14 04:38:39;;;;;;;7.88;5.10;;;9.50;99.90;;;;;;5052694;28;20450;-66
2022/03/14 04:41:05;;;;;;;7.28;5.25;;;9.60;99.90;;;;;;5051458;28;20063;-66
2022/03/14 04:43:31;;;;;;;7.03;4.32;;;9.80;99.90;;;;;;5052843;28;20037;-66
2022/03/14 04:45:56;;;;;;;6.45;4.88;;;9.60;99.90;;;;;;5051527;28;20335;-66
2022/03/14 04:48:23;;;;;;;5.90;4.28;;;9.80;99.90;;;;;;5051195;28;20128;-66
2022/03/14 04:50:50;;;;;;;6.95;4.45;;;9.80;99.90;;;;;;5052363;28;20082;-66
2022/03/14 04:53:17;;;;;;;5.68;4.25;;;9.50;99.90;;;;;;5034416;28;20041;-66
2022/03/14 04:55:43;;;;;;;5.22;4.28;;;9.80;99.90;;;;;;5052766;28;20036;-66
2022/03/14 04:58:12;;;;;;;4.90;4.38;;;9.80;99.90;;;;;;5051206;28;20044;-66
2022/03/14 05:00:38;;;;;;;4.40;3.80;;;9.70;99.90;;;;;;5050934;28;20048;-67
2022/03/14 05:03:05;;;;;;;6.45;4.03;;;9.90;99.90;;;;;;5051332;28;20223;-66
2022/03/14 05:05:31;;;;;;;5.78;4.13;;;9.90;99.90;;;;;;5051187;28;20119;-66
2022/03/14 05:07:57;;;;;;;5.20;3.70;;;9.80;99.90;;;;;;5050952;28;20498;-66
2022/03/14 05:10:23;;;;;;;5.72;4.28;;;9.90;99.90;;;;;;5052484;28;20060;-66
2022/03/14 05:12:49;;;;;;;4.50;3.55;;;9.90;99.90;;;;;;5054184;28;20411;-66
2022/03/14 05:15:16;;;;;;;5.90;4.28;;;9.90;99.90;;;;;;5053048;28;20041;-66
2022/03/14 05:17:42;;;;;;;5.93;3.70;;;9.80;99.90;;;;;;5050907;28;20095;-66
2022/03/14 05:20:09;;;;;;;4.38;3.70;;;9.90;99.90;;;;;;5051859;28;20148;-65
2022/03/14 05:22:41;;;;;;;4.32;3.35;;;9.90;99.90;;;;;;5050627;28;20037;-66
2022/03/14 05:25:07;;;;;;;3.83;3.33;;;9.80;99.90;;;;;;5052112;28;20041;-66
2022/03/14 05:27:32;;;;;;;4.97;3.80;;;9.90;99.90;;;;;;5050759;28;20558;-65
2022/03/14 05:29:58;;;;;;;3.72;2.95;;;10.00;99.90;;;;;;5051659;28;20414;-66
2022/03/14 05:32:23;;;;;;;4.72;3.00;;;9.90;99.90;;;;;;5050417;28;20037;-66
2022/03/14 05:34:49;;;;;;;6.68;3.10;;;9.90;99.90;;;;;;5033943;28;20051;-66
2022/03/14 05:37:15;;;;;;;3.42;2.75;;;9.90;99.90;;;;;;5052028;28;20048;-66
2022/03/14 05:39:41;;;;;;;4.03;2.80;;;10.00;99.90;;;;;;5051734;28;20044;-63
2022/03/14 05:42:07;;;;;;;3.40;3.08;;;10.00;99.90;;;;;;5051857;28;20091;-65
2022/03/14 05:44:33;;;;;;;3.63;2.65;;;9.80;99.90;;;;;;5050153;28;20548;-65
2022/03/14 05:46:58;;;;;;;3.35;2.83;;;10.00;99.90;;;;;;5051768;28;20041;-66
2022/03/14 05:49:24;;;;;;;3.05;2.53;;;10.00;99.90;;;;;;5049940;28;20128;-66
2022/03/14 05:51:49;;;;;;;3.78;3.00;;;10.00;99.90;;;;;;5050217;28;20041;-66
2022/03/14 05:54:15;;;;;;;4.05;2.95;;;10.10;99.90;;;;;;5051505;28;20113;-66
2022/03/14 05:56:43;;;;;;;4.22;2.70;;;9.90;99.90;;;;;;5050509;28;20482;-67
2022/03/14 05:59:10;;;;;;;3.45;2.92;;;10.10;99.90;;;;;;5049900;28;20053;-67
2022/03/14 06:01:39;;;;;;;3.70;2.38;;;10.20;99.90;;;;;;5051236;28;20037;-66
2022/03/14 06:04:04;;;;;;;3.92;2.72;;;10.00;99.90;;;;;;5051026;28;20041;-66
2022/03/14 06:06:30;;;;;;;2.83;2.22;;;10.10;99.90;;;;;;5049993;28;20102;-66
2022/03/14 06:08:56;;;;;;;3.20;2.58;;;10.00;99.90;;;;;;5033153;28;20470;-66
2022/03/14 06:11:22;;;;;;;3.38;2.63;;;9.80;99.90;;;;;;5049846;28;20190;-66
2022/03/14 06:13:47;;;;;;;3.88;2.63;;;9.90;99.90;;;;;;5051226;28;20541;-67
2022/03/14 06:16:13;;;;;;;3.67;3.00;;;10.00;99.90;;;;;;5049879;28;20072;-66
2022/03/14 06:18:39;;;;;;;3.95;2.65;;;10.00;99.90;;;;;;5049926;28;20052;-67
2022/03/14 06:21:05;;;;;;;3.17;2.63;;;9.90;99.90;;;;;;5049577;28;20116;-68
2022/03/14 06:23:30;;;;;;;4.47;2.88;;;10.10;99.90;;;;;;5049828;28;20037;-68
2022/03/14 06:25:57;;;;;;;3.53;3.00;;;10.10;99.90;;;;;;5050096;28;20037;-68
2022/03/14 06:28:23;;;;;;;3.83;2.85;;;10.00;99.90;;;;;;5051280;28;20068;-68
2022/03/14 06:30:48;;;;;;;2.90;2.50;;;10.00;99.90;;;;;;5049502;28;20491;-67
2022/03/14 06:33:15;;;;;;;3.28;2.78;;;10.20;99.90;;;;;;5051150;28;20048;-67
2022/03/14 06:35:41;;;;;;;4.05;3.03;;;10.00;99.90;;;;;;5051359;28;20037;-68
2022/03/14 06:38:07;;;;;;;4.35;2.95;;;10.00;99.90;;;;;;5033120;28;20036;-66
2022/03/14 06:40:32;;;;;;;3.03;2.72;;;10.10;99.90;;;;;;5049621;28;20037;-66
2022/03/14 06:42:59;;;;;;;4.15;2.92;;;10.10;99.90;;;;;;5051165;28;20037;-67
2022/03/14 06:45:24;;;;;;;5.93;3.28;;;10.00;99.90;;;;;;5050962;28;20466;-66
2022/03/14 06:47:54;;;;;;;3.65;3.08;;;10.00;99.90;;;;;;5049615;28;20052;-66
2022/03/14 06:50:21;;;;;;;5.20;2.83;;;10.00;99.90;;;;;;5049355;28;20041;-67
2022/03/14 06:52:47;;;;;;;4.60;3.17;;;10.10;99.90;;;;;;5049705;28;20116;-66
2022/03/14 06:55:13;;;;;;;4.70;3.10;;;10.10;99.90;;;;;;5050954;28;20061;-67
2022/03/14 06:57:40;;;;;;;4.50;3.45;;;9.90;99.90;;;;;;5050898;28;20051;-66
2022/03/14 07:00:07;;;;;;;4.50;3.17;;;9.90;99.90;;;;;;5049356;28;20049;-66
2022/03/14 07:02:35;;;;;;;3.75;3.13;;;10.00;99.90;;;;;;5049339;28;20510;-67
2022/03/14 07:05:01;;;;;;;4.15;3.33;;;10.40;99.90;;;;;;5051264;28;20405;-67
2022/03/14 07:07:27;;;;;;;4.68;3.45;;;10.00;99.90;;;;;;5051074;28;20082;-66
2022/03/14 07:09:53;;;;;;;4.35;3.40;;;10.00;99.90;;;;;;5050608;28;20037;-66
2022/03/14 07:12:18;;;;;;;3.88;3.22;;;10.10;99.90;;;;;;5051008;28;20049;-67
2022/03/14 07:14:44;;;;;;;4.38;3.47;;;10.10;99.90;;;;;;5054531;28;20037;-67
2022/03/14 07:17:09;;;;;;;4.40;3.63;;;10.00;99.90;;;;;;5036660;28;20044;-66
2022/03/14 07:19:35;;;;;;;4.65;3.78;;;10.20;99.90;;;;;;5046585;28;20037;-66
2022/03/14 07:22:02;;;;;;;5.10;3.70;;;10.10;99.90;;;;;;5042388;28;20045;-65
2022/03/14 07:24:27;;;;;;;4.75;3.55;;;10.10;99.90;;;;;;5053313;28;20040;-67
2022/03/14 07:26:53;;;;;;;4.45;3.72;;;10.00;99.90;;;;;;5050471;28;20041;-66
2022/03/14 07:29:18;;;;;;;4.15;3.53;;;10.10;99.90;;;;;;5053023;28;20043;-66
2022/03/14 07:31:44;;;;;;;5.47;4.10;;;10.20;99.90;;;;;;5039493;28;20458;-67
2022/03/14 07:34:10;;;;;;;7.80;3.95;;;10.10;99.90;;;;;;5037493;28;20056;-67
2022/03/14 07:36:37;;;;;;;5.13;4.20;;;10.00;99.90;;;;;;5043371;28;20462;-65
2022/03/14 07:39:04;;;;;;;5.15;4.38;;;10.00;99.90;;;;;;5041571;28;20041;-67
2022/03/14 07:41:29;;;;;;;6.15;4.65;;;10.00;99.90;;;;;;5047335;28;20037;-65
2022/03/14 07:43:55;;;;;;;4.85;3.80;;;10.10;99.90;;;;;;5038649;28;20082;-66
2022/03/14 07:46:21;;;;;;;7.28;4.35;;;10.20;99.90;;;;;;5043567;28;20040;-66
2022/03/14 07:48:46;;;;;;;6.93;4.47;;;10.20;99.90;;;;;;5037935;28;20643;-66
2022/03/14 07:51:12;;;;;;;8.23;4.47;;;10.30;99.90;;;;;;5042163;28;20057;-66
2022/03/14 07:53:37;;;;;;;7.55;4.28;;;10.20;99.90;;;;;;5033397;28;20045;-67
2022/03/14 07:56:03;;;;;;;6.15;4.97;;;10.20;99.90;;;;;;5047247;28;20038;-68
2022/03/14 07:58:29;;;;;;;6.40;4.45;;;10.20;99.90;;;;;;5049103;28;20048;-66
2022/03/14 08:00:55;;;;;;;5.53;4.25;;;10.10;99.90;;;;;;5048222;28;20095;-66
2022/03/14 08:03:22;;;;;;;8.85;5.28;;;10.10;99.90;;;;;;5081668;22;20518;-66
2022/03/14 08:05:53;;;;;;;5.30;4.53;;;10.20;99.90;;;;;;5055361;28;20040;-67
2022/03/14 08:08:19;;;;;;;11.77;6.28;;;10.40;99.90;;;;;;5036752;28;20103;-66
2022/03/14 08:10:46;;;;;;;8.13;6.15;;;10.00;99.90;;;;;;5055301;28;20033;-65
2022/03/14 08:13:12;;;;;;;12.40;6.40;;;10.10;99.90;;;;;;5045594;28;20140;-66
2022/03/14 08:15:38;;;;;;;8.15;6.38;;;10.10;99.90;;;;;;5041586;28;20606;-66
2022/03/14 08:18:08;;;;;;;11.23;7.05;;;10.20;99.90;;;;;;5033093;28;20032;-65
2022/03/14 08:20:34;;;;;;;10.02;8.13;;;10.30;99.90;;;;;;5031114;28;20041;-66
2022/03/14 08:23:02;;;;;;;11.18;8.40;;;10.20;99.90;;;;;;5041054;28;20049;-64
2022/03/14 08:25:29;;;;;;;10.95;8.73;;;10.10;99.90;;;;;;5026977;28;20045;-66
2022/03/14 08:27:55;;;;;;;14.55;9.48;;;10.20;99.90;;;;;;5038458;28;20483;-66
2022/03/14 08:30:25;;;;;;;13.77;9.55;;;10.10;99.90;;;;;;5027713;28;20052;-66
2022/03/14 08:32:53;;;;;;;11.43;9.35;;;10.20;99.90;;;;;;5019264;28;20033;-67
2022/03/14 08:35:20;;;;;;;14.52;11.13;;;10.10;99.90;;;;;;5030645;28;20041;-67
2022/03/14 08:37:48;;;;;;;20.38;14.80;;;10.20;99.90;;;;;;5040044;28;20045;-67
2022/03/14 08:40:16;;;;;;;23.17;16.50;;;10.20;99.90;;;;;;5032269;28;20099;-66
2022/03/14 08:42:43;;;;;;;23.33;16.58;;;10.00;99.90;;;;;;5037943;28;20041;-66
2022/03/14 08:45:09;;;;;;;21.02;15.65;;;9.90;99.90;;;;;;5031723;28;20053;-67
2022/03/14 08:47:36;;;;;;;23.25;16.98;;;10.00;99.90;;;;;;5036036;28;20481;-66
2022/03/14 08:50:03;;;;;;;22.52;16.77;;;10.10;99.90;;;;;;5015063;28;20045;-65
2022/03/14 08:52:30;;;;;;;21.90;16.33;;;9.90;99.90;;;;;;5044499;28;20048;-66
2022/03/14 08:54:56;;;;;;;23.58;17.05;;;9.80;99.90;;;;;;5039036;28;20037;-68
2022/03/14 08:57:22;;;;;;;25.15;16.80;;;10.00;99.90;;;;;;5041958;28;20041;-66
2022/03/14 08:59:48;;;;;;;22.40;16.27;;;9.70;99.90;;;;;;5039787;28;20068;-67
2022/03/14 09:02:13;;;;;;;23.13;17.15;;;9.90;99.90;;;;;;5037574;28;20376;-67
2022/03/14 09:04:39;;;;;;;24.25;17.75;;;9.90;99.90;;;;;;5046845;28;20114;-67
2022/03/14 09:07:05;;;;;;;27.25;19.63;;;9.80;99.90;;;;;;5036302;28;20065;-67
2022/03/14 09:09:31;;;;;;;30.15;19.70;;;9.70;99.90;;;;;;5032134;28;20052;-67
2022/03/14 09:11:58;;;;;;;29.10;20.05;;;9.70;99.90;;;;;;5039119;28;20036;-67
2022/03/14 09:14:24;;;;;;;31.40;21.23;;;9.80;99.90;;;;;;5020365;28;20041;-66
2022/03/14 09:16:50;;;;;;;29.95;19.63;;;9.60;99.90;;;;;;5036832;28;20044;-70
2022/03/14 09:19:15;;;;;;;31.27;19.52;;;9.70;99.90;;;;;;5023904;28;20123;-67
2022/03/14 09:21:41;;;;;;;31.20;18.73;;;9.70;99.90;;;;;;5031304;28;20120;-67
2022/03/14 09:24:07;;;;;;;30.08;19.15;;;9.60;99.90;;;;;;5038740;28;20067;-66
2022/03/14 09:26:35;;;;;;;29.17;18.20;;;9.60;99.90;;;;;;5033182;28;20080;-67
2022/03/14 09:29:01;;;;;;;35.28;20.42;;;9.60;99.90;;;;;;5032357;28;20045;-67
2022/03/14 09:31:26;;;;;;;32.90;18.77;;;9.50;99.90;;;;;;5034061;28;20053;-67
2022/03/14 09:33:52;;;;;;;31.92;19.60;;;9.60;99.90;;;;;;5045808;28;20037;-67
2022/03/14 09:36:17;;;;;;;32.15;18.92;;;9.60;99.90;;;;;;5019253;28;20068;-67
2022/03/14 09:38:44;;;;;;;28.95;16.98;;;9.70;99.90;;;;;;5040332;28;20509;-67
2022/03/14 09:41:11;;;;;;;33.97;17.75;;;9.60;99.90;;;;;;5038181;28;20115;-68
2022/03/14 09:43:39;;;;;;;28.10;16.08;;;9.50;99.90;;;;;;5038603;28;20120;-68
2022/03/14 09:46:09;;;;;;;24.58;14.32;;;9.70;99.90;;;;;;5037213;28;20531;-67
2022/03/14 09:48:40;;;;;;;27.77;13.15;;;9.70;99.90;;;;;;5039118;28;20568;-68
2022/03/14 09:51:06;;;;;;;24.38;12.88;;;9.70;99.90;;;;;;5037573;28;20051;-67
2022/03/14 09:53:33;;;;;;;21.52;10.75;;;9.60;99.90;;;;;;5046205;28;20052;-67
2022/03/14 09:55:59;;;;;;;26.60;11.68;;;9.70;99.90;;;;;;5038651;28;20047;-68
2022/03/14 09:58:24;;;;;;;17.80;10.10;;;9.80;99.90;;;;;;5038327;28;20037;-67
2022/03/14 10:00:50;;;;;;;21.85;11.38;;;9.60;99.90;;;;;;5037745;28;20041;-67
2022/03/14 10:03:18;;;;;;;20.95;10.27;;;9.90;99.90;;;;;;5040523;28;20087;-67
2022/03/14 10:05:44;;;;;;;21.48;9.75;;;9.80;99.90;;;;;;5037686;28;20505;-67
2022/03/14 10:08:11;;;;;;;19.88;11.63;;;9.70;99.90;;;;;;5036370;28;20037;-67
2022/03/14 10:10:37;;;;;;;22.05;10.45;;;10.00;99.90;;;;;;5037686;28;20040;-67
2022/03/14 10:13:05;;;;;;;18.38;9.70;;;9.90;99.90;;;;;;5037358;28;20033;-66
2022/03/14 10:15:32;;;;;;;22.58;8.93;;;10.00;99.90;;;;;;5038176;28;20096;-68
2022/03/14 10:17:58;;;;;;;19.27;8.10;;;10.20;99.90;;;;;;5039770;28;20064;-67
2022/03/14 10:20:25;;;;;;;18.38;8.88;;;10.20;99.90;;;;;;5036898;28;20049;-67
2022/03/14 10:22:52;;;;;;;13.75;7.72;;;10.10;99.90;;;;;;5040433;28;20491;-66
2022/03/14 10:25:21;;;;;;;16.70;7.38;;;10.20;99.90;;;;;;5040065;28;20033;-68
2022/03/14 10:27:55;;;;;;;20.85;6.82;;;10.30;99.90;;;;;;5040479;28;20086;-68
2022/03/14 10:30:29;;;;;;;13.18;6.40;;;10.30;99.90;;;;;;5042254;28;20088;-68
2022/03/14 10:33:13;;;;;;;14.55;4.85;;;10.40;99.90;;;;;;5040136;28;20049;-67
2022/03/14 10:35:41;;;;;;;14.55;5.18;;;10.40;99.90;;;;;;5041653;28;20037;-67
2022/03/14 10:38:10;;;;;;;15.23;5.80;;;10.30;99.90;;;;;;5040870;28;20076;-68
2022/03/14 10:40:39;;;;;;;14.15;5.93;;;10.40;99.90;;;;;;5039982;28;20110;-68
2022/03/14 10:43:20;;;;;;;13.80;5.68;;;10.30;99.90;;;;;;5041247;28;20053;-67
2022/03/14 10:45:46;;;;;;;9.07;5.60;;;10.50;99.90;;;;;;5041057;28;20083;-68
2022/03/14 10:48:12;;;;;;;13.80;5.88;;;10.30;99.90;;;;;;5043356;28;20038;-68
2022/03/14 10:50:40;;;;;;;17.15;6.30;;;10.40;99.90;;;;;;5038142;28;20174;-67
2022/03/14 10:53:20;;;;;;;17.02;6.85;;;10.40;99.90;;;;;;5041290;28;20525;-68
2022/03/14 10:55:48;;;;;;;14.15;7.90;;;10.50;99.90;;;;;;5034150;28;20041;-68
2022/03/14 10:58:19;;;;;;;15.13;7.63;;;10.40;99.90;;;;;;5043090;28;20484;-68
2022/03/14 11:00:54;;;;;;;13.25;6.93;;;10.10;99.90;;;;;;5045160;28;20246;-68
2022/03/14 11:03:32;;;;;;;15.48;7.55;;;10.40;99.90;;;;;;5041897;28;20190;-67
2022/03/14 11:06:03;;;;;;;15.15;7.28;;;10.30;99.90;;;;;;5044190;28;20461;-68
2022/03/14 11:08:31;;;;;;;16.77;6.85;;;10.30;99.90;;;;;;5043234;28;20065;-68
2022/03/14 11:10:59;;;;;;;14.00;6.82;;;10.30;99.90;;;;;;5041804;28;20045;-68
2022/03/14 11:13:25;;;;;;;17.92;8.35;;;10.30;99.90;;;;;;5043399;28;20090;-68
2022/03/14 11:15:50;;;;;;;15.93;6.88;;;10.50;99.90;;;;;;5045047;28;20037;-68
2022/03/14 11:18:21;;;;;;;15.23;7.82;;;10.60;99.90;;;;;;5027217;28;20483;-68
2022/03/14 11:20:46;;;;;;;21.67;8.35;;;10.50;99.90;;;;;;5026181;28;20041;-68
2022/03/14 11:23:15;;;;;;;17.60;8.27;;;10.70;99.90;;;;;;5041527;28;20483;-67
2022/03/14 11:25:46;;;;;;;17.45;7.88;;;10.70;99.90;;;;;;5026475;28;20064;-68
2022/03/14 11:28:22;;;;;;;17.65;8.32;;;10.70;99.90;;;;;;5026700;28;20044;-68
2022/03/14 11:30:57;;;;;;;16.00;8.95;;;10.60;99.90;;;;;;5043899;28;20041;-69
2022/03/14 11:33:23;;;;;;;22.27;10.60;;;10.40;99.90;;;;;;5036919;28;20033;-69
2022/03/14 11:35:51;;;;;;;26.40;9.98;;;10.70;99.90;;;;;;5042167;28;20069;-69
2022/03/14 11:38:17;;;;;;;20.38;11.43;;;10.80;99.90;;;;;;5047206;28;20037;-69
2022/03/14 11:40:43;;;;;;;17.77;10.30;;;10.80;99.90;;;;;;5067879;28;20040;-68
2022/03/14 11:43:10;;;;;;;21.45;11.15;;;10.90;99.90;;;;;;5032915;28;20470;-68
2022/03/14 11:45:37;;;;;;;22.70;10.90;;;10.80;99.90;;;;;;5043682;28;20499;-69
2022/03/14 11:48:05;;;;;;;22.35;12.10;;;10.80;99.90;;;;;;5029454;28;20037;-68
2022/03/14 11:50:53;;;;;;;22.45;11.38;;;10.90;99.90;;;;;;5029137;28;20120;-68
2022/03/14 11:53:25;;;;;;;23.95;10.73;;;10.90;99.90;;;;;;5026555;28;20033;-68
2022/03/14 11:55:55;;;;;;;23.80;12.23;;;;;;;;;;5059597;28;20040;-69
2022/03/14 11:58:29;;;;;;;24.77;12.07;;;;;;;;;;5051673;28;20119;-68
2022/03/14 12:00:55;;;;;;;18.38;11.95;;;11.10;99.90;;;;;;5052080;28;20041;-69
2022/03/14 12:03:39;;;;;;;27.73;12.27;;;;;;;;;;5069235;28;20040;-68
2022/03/14 12:06:05;;;;;;;23.08;11.85;;;;;;;;;;5069013;28;20079;-68
2022/03/14 12:08:32;;;;;;;25.15;12.45;;;;;;;;;;5068873;28;20483;-68
2022/03/14 12:11:18;;;;;;;26.73;12.32;;;;;;;;;;5027604;28;20128;-68
2022/03/14 12:13:47;;;;;;;21.25;11.27;;;;;;;;;;5014412;28;20359;-68
2022/03/14 12:16:32;;;;;;;21.77;11.68;;;;;;;;;;5048990;28;20047;-68
2022/03/14 12:18:58;;;;;;;22.60;12.70;;;;;;;;;;5051801;28;20106;-68
2022/03/14 12:21:43;;;;;;;26.63;10.80;;;;;;;;;;5051907;28;20037;-69
2022/03/14 12:24:17;;;;;;;23.40;11.82;;;;;;;;;;5051938;28;20041;-69
2022/03/14 12:26:43;;;;;;;22.10;10.82;;;;;;;;;;5052514;28;20040;-69
2022/03/14 12:29:28;;;;;;;25.70;11.85;;;;;;;;;;5051816;28;20406;-69
2022/03/14 12:32:33;;;;;;;20.13;10.57;;;;;;;;;;5052023;28;20049;-68
2022/03/14 12:35:00;;;;;;;20.10;10.40;;;;;;;;;;5014169;28;20037;-69
2022/03/14 12:37:34;;;;;;;19.70;10.40;;;;;;;;;;5008895;28;20045;-68
2022/03/14 12:40:00;;;;;;;22.70;10.77;;;;;;;;;;5030953;28;20136;-69
2022/03/14 12:42:26;;;;;;;25.38;11.45;;;;;;;;;;5037133;28;20522;-69
2022/03/14 12:45:11;;;;;;;20.08;8.52;;;;;;;;;;5031900;28;20042;-69